YPTN/KTR METAR and TAF weather

Enter ICAO airport designator
Station Type Date Time Source
YPTN METAR 2020/07/05 17:00 UTC NOAA

YPTN 051700Z AUTO 13004KT 9999 // NCD 13/03 Q1017


Station Type Date Time Source
YPTN Decoded METAR 2020/07/05 17:00 UTC NOAA

Tindal / Katherine, Australia (YPTN) 14-26S 132-16E 109M
Jul 05, 2020 - 01:00 PM EDT / 2020.07.05 1700 UTC
Wind: from the SE (130 degrees) at 5 MPH (4 KT):0
Visibility: greater than 7 mile(s):0
Temperature: 55 F (13 C)
Dew Point: 37 F (3 C)
Relative Humidity: 50%
Pressure (altimeter): 30.03 in. Hg (1017 hPa)
ob: YPTN 051700Z AUTO 13004KT 9999 // NCD 13/03 Q1017
cycle: 17

Station Type Date Time Source
YPTN TAF 2020/07/05 18:16 UTC NOAA

TAF
AMD YPTN 051714Z 0518/0618 12006KT CAVOK
FM060000 11016KT CAVOK
FM061000 14006KT CAVOK

Example: see airport list